Time;durP1;ratioP1;P1;durP2;ratioP2;P2;SDS_P1;SDS_P2;PMS_P1;PMS_P2;Temp;Humidity;BMP_temperature;BMP_pressure;BME280_temperature;BME280_humidity;BME280_pressure;Samples;Min_cycle;Max_cycle;Signal;HPM_P1;HPM_P2
2023/12/07 00:00:35;;;;;;;4.47;2.60;;;17.30;46.90;;;;;;5147807;27;45361;-64
2023/12/07 00:03:02;;;;;;;10.32;2.80;;;17.20;46.90;;;;;;5147409;27;47399;-63
2023/12/07 00:05:29;;;;;;;4.78;2.33;;;17.20;47.00;;;;;;5130085;27;45612;-64
2023/12/07 00:07:56;;;;;;;3.47;2.70;;;17.20;47.10;;;;;;5126326;27;45434;-64
2023/12/07 00:10:24;;;;;;;3.05;2.50;;;17.10;47.00;;;;;;5126516;27;45338;-64
2023/12/07 00:12:51;;;;;;;3.25;2.80;;;17.10;47.10;;;;;;5127184;27;46401;-64
2023/12/07 00:15:17;;;;;;;5.47;2.70;;;17.00;47.10;;;;;;5129633;27;45286;-64
2023/12/07 00:17:44;;;;;;;2.65;2.20;;;17.00;47.10;;;;;;5129669;27;45403;-64
2023/12/07 00:20:12;;;;;;;3.35;2.25;;;16.90;47.20;;;;;;5129920;27;45427;-64
2023/12/07 00:22:39;;;;;;;2.90;1.98;;;16.90;47.20;;;;;;5129688;27;46371;-64
2023/12/07 00:25:07;;;;;;;3.08;2.35;;;16.80;47.20;;;;;;5129467;27;45261;-64
2023/12/07 00:27:35;;;;;;;2.40;2.20;;;16.80;47.50;;;;;;5129674;27;45305;-64
2023/12/07 00:30:03;;;;;;;2.90;2.08;;;16.80;47.30;;;;;;5129995;27;45402;-64
2023/12/07 00:32:30;;;;;;;3.17;2.00;;;16.70;47.30;;;;;;5129216;27;45462;-64
2023/12/07 00:34:56;;;;;;;4.18;2.58;;;16.70;47.40;;;;;;5129444;27;45286;-65
2023/12/07 00:37:23;;;;;;;2.20;2.00;;;16.70;47.30;;;;;;5129676;27;45307;-66
2023/12/07 00:39:50;;;;;;;3.28;2.28;;;16.60;47.40;;;;;;5130020;27;45388;-65
2023/12/07 00:42:17;;;;;;;1.90;1.80;;;16.60;47.50;;;;;;5129767;27;46390;-65
2023/12/07 00:44:45;;;;;;;2.47;2.20;;;16.50;47.40;;;;;;5129731;27;45393;-65
2023/12/07 00:47:12;;;;;;;3.83;2.20;;;16.50;47.50;;;;;;5153677;27;45288;-65
2023/12/07 00:49:39;;;;;;;3.35;2.47;;;16.50;47.40;;;;;;5171950;27;45430;-65
2023/12/07 00:52:06;;;;;;;3.90;2.10;;;16.40;47.40;;;;;;5171222;27;46482;-65
2023/12/07 00:54:33;;;;;;;4.65;1.90;;;16.40;47.50;;;;;;5171389;27;45392;-65
2023/12/07 00:56:59;;;;;;;2.72;2.05;;;16.40;47.50;;;;;;5171210;27;45295;-65
2023/12/07 00:59:26;;;;;;;3.17;1.98;;;16.30;47.50;;;;;;5171715;27;45256;-65
2023/12/07 01:01:54;;;;;;;2.50;2.00;;;16.30;47.50;;;;;;5171478;27;46165;-66
2023/12/07 01:04:21;;;;;;;2.10;1.90;;;16.20;47.50;;;;;;5163853;27;45403;-65
2023/12/07 01:06:48;;;;;;;2.38;1.92;;;16.20;47.50;;;;;;5150313;27;45492;-65
2023/12/07 01:09:15;;;;;;;4.20;2.30;;;16.20;48.20;;;;;;5150397;27;45328;-65
2023/12/07 01:11:41;;;;;;;2.47;2.10;;;16.10;47.60;;;;;;5150044;27;47127;-67
2023/12/07 01:14:08;;;;;;;2.38;1.90;;;16.10;47.70;;;;;;5149746;27;45418;-65
2023/12/07 01:16:35;;;;;;;2.35;2.10;;;16.10;47.70;;;;;;5149616;27;45410;-65
2023/12/07 01:19:03;;;;;;;2.92;2.40;;;16.00;47.70;;;;;;5150273;27;45308;-66
2023/12/07 01:21:30;;;;;;;2.67;2.00;;;16.00;47.80;;;;;;5149983;27;46391;-67
2023/12/07 01:23:58;;;;;;;2.83;1.95;;;16.00;47.70;;;;;;5149525;27;45263;-65
2023/12/07 01:26:24;;;;;;;2.72;2.22;;;16.00;47.80;;;;;;5149702;27;45315;-65
2023/12/07 01:28:51;;;;;;;3.30;2.40;;;15.90;47.70;;;;;;5150040;27;45457;-65
2023/12/07 01:31:19;;;;;;;3.22;2.40;;;15.80;47.80;;;;;;5152271;27;45484;-66
2023/12/07 01:33:44;;;;;;;2.58;2.38;;;15.80;47.80;;;;;;5149662;27;45255;-65
2023/12/07 01:36:13;;;;;;;4.18;2.30;;;15.80;47.80;;;;;;5149588;27;45322;-65
2023/12/07 01:38:39;;;;;;;2.67;2.22;;;15.80;47.80;;;;;;5149963;27;45320;-65
2023/12/07 01:41:06;;;;;;;2.70;2.30;;;15.70;47.80;;;;;;5149426;27;45334;-65
2023/12/07 01:43:33;;;;;;;3.67;2.20;;;15.70;47.80;;;;;;5149882;27;45498;-65
2023/12/07 01:46:00;;;;;;;3.42;2.60;;;15.70;47.90;;;;;;5151402;27;45271;-65
2023/12/07 01:48:27;;;;;;;2.17;1.98;;;15.70;48.00;;;;;;5170798;27;45249;-65
2023/12/07 01:50:54;;;;;;;2.10;1.80;;;15.60;48.00;;;;;;5170551;27;45328;-65
2023/12/07 01:53:22;;;;;;;2.58;1.77;;;15.60;48.00;;;;;;5167735;27;45430;-65
2023/12/07 01:55:49;;;;;;;2.92;2.08;;;15.60;48.00;;;;;;5170370;27;45525;-67
2023/12/07 01:58:16;;;;;;;2.40;2.05;;;15.50;47.90;;;;;;5170120;27;45342;-66
2023/12/07 02:00:42;;;;;;;1.98;1.75;;;15.60;48.00;;;;;;5170390;27;45472;-65
2023/12/07 02:03:09;;;;;;;2.90;1.85;;;15.50;47.90;;;;;;5167481;27;45285;-65
2023/12/07 02:05:37;;;;;;;1.70;1.60;;;15.50;47.90;;;;;;5151971;27;45326;-65
2023/12/07 02:08:04;;;;;;;2.17;1.85;;;15.50;48.00;;;;;;5149360;27;45484;-65
2023/12/07 02:10:32;;;;;;;2.20;2.00;;;15.40;48.00;;;;;;5148644;27;45457;-65
2023/12/07 02:12:59;;;;;;;2.70;2.00;;;15.40;48.00;;;;;;5148970;27;45298;-65
2023/12/07 02:15:26;;;;;;;2.15;1.95;;;15.40;48.10;;;;;;5149096;27;45523;-65
2023/12/07 02:17:58;;;;;;;2.17;1.67;;;15.30;47.90;;;;;;5149262;27;45450;-65
2023/12/07 02:20:26;;;;;;;4.05;2.00;;;15.30;48.00;;;;;;5148561;27;47328;-65
2023/12/07 02:22:54;;;;;;;3.22;2.28;;;15.30;47.90;;;;;;5148403;27;45380;-65
2023/12/07 02:25:24;;;;;;;1.92;1.80;;;15.30;48.00;;;;;;5148658;27;45425;-65
2023/12/07 02:27:53;;;;;;;2.05;1.85;;;15.30;48.00;;;;;;5148507;27;45440;-65
2023/12/07 02:30:19;;;;;;;2.65;1.80;;;15.20;47.90;;;;;;5148378;27;45377;-64
2023/12/07 02:32:46;;;;;;;2.78;1.90;;;15.10;48.00;;;;;;5148276;27;45219;-64
2023/12/07 02:35:13;;;;;;;2.03;1.83;;;15.10;48.00;;;;;;5145811;27;45403;-65
2023/12/07 02:37:42;;;;;;;2.13;1.77;;;15.10;48.00;;;;;;5147955;27;45203;-65
2023/12/07 02:40:10;;;;;;;3.17;1.80;;;15.10;48.10;;;;;;5148228;27;45453;-64
2023/12/07 02:42:38;;;;;;;1.88;1.77;;;15.00;48.10;;;;;;5148217;27;45240;-65
2023/12/07 02:45:07;;;;;;;2.10;1.90;;;15.00;48.00;;;;;;5148223;27;45199;-64
2023/12/07 02:47:34;;;;;;;1.83;1.70;;;15.00;48.00;;;;;;5163940;27;45341;-64
2023/12/07 02:50:01;;;;;;;1.88;1.70;;;15.00;48.00;;;;;;5169212;27;46471;-64
2023/12/07 02:52:28;;;;;;;1.83;1.60;;;14.90;48.00;;;;;;5169332;27;45259;-64
2023/12/07 02:54:55;;;;;;;1.48;1.30;;;14.90;47.90;;;;;;5169559;27;45191;-64
2023/12/07 02:57:22;;;;;;;1.58;1.35;;;14.90;47.90;;;;;;5169070;27;45345;-64
2023/12/07 02:59:49;;;;;;;1.63;1.52;;;14.90;48.00;;;;;;5169208;27;47276;-64
2023/12/07 03:02:17;;;;;;;1.58;1.40;;;14.90;47.90;;;;;;5169293;27;45323;-64
2023/12/07 03:04:43;;;;;;;1.40;1.30;;;14.80;47.80;;;;;;5158613;27;45252;-64
2023/12/07 03:07:10;;;;;;;1.98;1.40;;;14.80;47.90;;;;;;5148601;27;45382;-64
2023/12/07 03:09:37;;;;;;;1.95;1.60;;;14.80;47.80;;;;;;5148153;27;45296;-64
2023/12/07 03:12:04;;;;;;;2.17;1.85;;;14.80;47.70;;;;;;5148125;27;45377;-64
2023/12/07 03:14:31;;;;;;;2.08;1.45;;;14.80;47.70;;;;;;5148236;27;45280;-64
2023/12/07 03:16:58;;;;;;;1.50;1.40;;;14.80;47.70;;;;;;5147938;27;45326;-64
2023/12/07 03:19:26;;;;;;;1.48;1.38;;;14.80;47.70;;;;;;5147850;27;45256;-64
2023/12/07 03:21:53;;;;;;;1.73;1.58;;;14.80;47.70;;;;;;5147827;27;45385;-64
2023/12/07 03:24:20;;;;;;;2.00;1.63;;;14.70;47.70;;;;;;5147617;27;45369;-65
2023/12/07 03:26:47;;;;;;;1.50;1.40;;;14.70;47.80;;;;;;5147757;27;45500;-65
2023/12/07 03:29:13;;;;;;;1.63;1.52;;;14.60;47.70;;;;;;5147477;27;45479;-64
2023/12/07 03:31:40;;;;;;;1.77;1.52;;;14.60;47.80;;;;;;5147727;27;45361;-64
2023/12/07 03:34:07;;;;;;;1.85;1.23;;;14.60;47.90;;;;;;5148065;27;45315;-64
2023/12/07 03:36:35;;;;;;;1.77;1.38;;;14.60;47.80;;;;;;5145259;27;45455;-64
2023/12/07 03:39:03;;;;;;;1.70;1.60;;;14.60;47.80;;;;;;5147680;27;45309;-64
2023/12/07 03:41:30;;;;;;;1.92;1.60;;;14.60;47.70;;;;;;5147782;27;45322;-64
2023/12/07 03:43:57;;;;;;;1.45;1.35;;;14.60;47.70;;;;;;5147931;27;45340;-65
2023/12/07 03:46:23;;;;;;;1.60;1.48;;;14.50;47.60;;;;;;5153087;27;45332;-64
2023/12/07 03:48:50;;;;;;;1.50;1.40;;;14.50;47.50;;;;;;5171270;27;45317;-64
2023/12/07 03:51:17;;;;;;;1.55;1.30;;;14.50;47.60;;;;;;5172541;27;45313;-64
2023/12/07 03:53:45;;;;;;;1.70;1.23;;;14.50;47.50;;;;;;5172538;27;45239;-64
2023/12/07 03:56:13;;;;;;;1.80;1.70;;;14.50;47.60;;;;;;5172475;27;45359;-64
2023/12/07 03:58:39;;;;;;;1.40;1.30;;;14.40;47.60;;;;;;5169937;27;46628;-64
2023/12/07 04:01:06;;;;;;;1.40;1.30;;;14.40;47.60;;;;;;5171885;27;45366;-64
2023/12/07 04:03:33;;;;;;;1.30;1.20;;;14.40;47.50;;;;;;5171750;27;45315;-65
2023/12/07 04:06:00;;;;;;;1.80;1.55;;;14.40;47.50;;;;;;5148419;27;45298;-65
2023/12/07 04:08:27;;;;;;;2.40;1.30;;;14.40;47.60;;;;;;5150622;27;46726;-65
2023/12/07 04:10:55;;;;;;;1.52;1.30;;;14.40;47.70;;;;;;5150331;27;45495;-64
2023/12/07 04:13:22;;;;;;;1.48;1.38;;;14.40;47.60;;;;;;5150723;27;45475;-64
2023/12/07 04:15:48;;;;;;;2.00;1.42;;;14.50;47.50;;;;;;5150910;27;45381;-64
2023/12/07 04:18:15;;;;;;;1.52;1.30;;;14.60;47.30;;;;;;5150011;27;48248;-64
2023/12/07 04:20:42;;;;;;;1.45;1.35;;;14.70;47.00;;;;;;5150746;27;45401;-64
2023/12/07 04:23:09;;;;;;;1.60;1.50;;;14.80;46.70;;;;;;5150747;27;45422;-64
2023/12/07 04:25:35;;;;;;;1.77;1.63;;;14.90;46.50;;;;;;5142590;27;45307;-64
2023/12/07 04:28:04;;;;;;;1.35;1.20;;;15.00;46.30;;;;;;5150748;27;46400;-64
2023/12/07 04:30:31;;;;;;;1.70;1.50;;;15.10;46.10;;;;;;5150729;27;45313;-65
2023/12/07 04:32:58;;;;;;;1.40;1.30;;;15.20;45.80;;;;;;5150872;27;45388;-65
2023/12/07 04:35:24;;;;;;;1.50;1.40;;;15.30;45.60;;;;;;5150866;27;45451;-64
2023/12/07 04:37:51;;;;;;;1.40;1.30;;;15.50;45.40;;;;;;5150226;27;45442;-64
2023/12/07 04:40:18;;;;;;;1.98;1.23;;;15.60;45.10;;;;;;5150304;27;45323;-64
2023/12/07 04:42:45;;;;;;;1.10;1.10;;;15.70;44.80;;;;;;5150542;27;45236;-64
2023/12/07 04:45:13;;;;;;;1.27;1.17;;;15.80;45.10;;;;;;5150666;27;45507;-65
2023/12/07 04:47:41;;;;;;;1.10;1.05;;;16.00;44.30;;;;;;5166479;27;46697;-66
2023/12/07 04:50:09;;;;;;;1.30;1.20;;;16.10;44.00;;;;;;5171460;27;45338;-64
2023/12/07 04:52:36;;;;;;;1.02;1.02;;;16.20;43.70;;;;;;5171140;27;45289;-64
2023/12/07 04:55:02;;;;;;;1.13;1.10;;;16.30;43.50;;;;;;5171273;27;45211;-64
2023/12/07 04:57:29;;;;;;;1.45;1.10;;;16.40;43.40;;;;;;5170446;27;45395;-64
2023/12/07 04:59:56;;;;;;;1.20;1.10;;;16.50;43.20;;;;;;5170222;27;45392;-64
2023/12/07 05:02:25;;;;;;;1.30;1.20;;;16.60;43.00;;;;;;5171183;27;45321;-64
2023/12/07 05:04:51;;;;;;;1.42;1.10;;;16.60;42.80;;;;;;5159688;27;45318;-64
2023/12/07 05:07:18;;;;;;;1.48;0.93;;;16.70;42.70;;;;;;5149827;27;46291;-64
2023/12/07 05:09:45;;;;;;;1.35;1.00;;;16.70;42.60;;;;;;5150004;27;45332;-64
2023/12/07 05:12:12;;;;;;;1.23;1.17;;;16.80;42.50;;;;;;5149969;27;45307;-64
2023/12/07 05:14:39;;;;;;;1.05;0.95;;;16.80;42.30;;;;;;5150141;27;45253;-64
2023/12/07 05:17:06;;;;;;;1.02;0.93;;;16.90;42.30;;;;;;5149787;27;45378;-64
2023/12/07 05:19:34;;;;;;;1.20;1.10;;;16.90;42.20;;;;;;5149745;27;45310;-64
2023/12/07 05:22:01;;;;;;;0.80;0.80;;;17.00;42.10;;;;;;5150180;27;45304;-64
2023/12/07 05:24:28;;;;;;;0.90;0.90;;;17.00;41.90;;;;;;5149917;27;45390;-64
2023/12/07 05:26:55;;;;;;;0.82;0.82;;;17.00;41.80;;;;;;5149345;27;45223;-65
2023/12/07 05:29:21;;;;;;;1.10;1.00;;;17.10;41.80;;;;;;5149511;27;45337;-64
2023/12/07 05:31:49;;;;;;;1.55;1.30;;;17.10;41.80;;;;;;5149591;27;45247;-65
2023/12/07 05:34:16;;;;;;;1.10;1.05;;;17.10;41.70;;;;;;5149568;27;45304;-64
2023/12/07 05:36:44;;;;;;;1.27;1.17;;;17.10;41.60;;;;;;5148870;27;46404;-64
2023/12/07 05:39:11;;;;;;;1.45;1.17;;;17.10;41.60;;;;;;5149231;27;45311;-64
2023/12/07 05:41:38;;;;;;;1.15;1.05;;;17.10;41.60;;;;;;5149654;27;45181;-64
2023/12/07 05:44:05;;;;;;;1.30;1.20;;;17.20;41.50;;;;;;5149500;27;45378;-65
2023/12/07 05:46:34;;;;;;;1.00;1.00;;;17.20;41.40;;;;;;5155601;27;46397;-65
2023/12/07 05:49:01;;;;;;;1.10;1.00;;;17.20;41.40;;;;;;5169810;27;45274;-65
2023/12/07 05:51:27;;;;;;;1.30;1.20;;;17.30;41.30;;;;;;5170220;27;45413;-64
2023/12/07 05:53:55;;;;;;;1.10;1.00;;;17.30;41.20;;;;;;5170570;27;45276;-64
2023/12/07 05:56:24;;;;;;;1.52;1.20;;;17.30;41.10;;;;;;5170040;27;45328;-64
2023/12/07 05:58:51;;;;;;;1.00;1.00;;;17.30;41.00;;;;;;5170060;27;45147;-64
2023/12/07 06:01:18;;;;;;;0.90;0.90;;;17.30;41.00;;;;;;5170268;27;45286;-65
2023/12/07 06:03:45;;;;;;;1.17;1.10;;;17.40;40.90;;;;;;5168274;27;45303;-65
2023/12/07 06:06:12;;;;;;;1.05;1.00;;;17.40;40.80;;;;;;5148771;27;46596;-65
2023/12/07 06:08:38;;;;;;;0.90;0.90;;;17.40;40.80;;;;;;5148913;27;45566;-65
2023/12/07 06:11:07;;;;;;;1.17;1.08;;;17.40;40.70;;;;;;5148788;27;45252;-65
2023/12/07 06:13:33;;;;;;;1.10;1.00;;;17.40;40.60;;;;;;5149320;27;45200;-64
2023/12/07 06:16:01;;;;;;;1.30;1.20;;;17.50;40.60;;;;;;5148622;27;45462;-65
2023/12/07 06:18:27;;;;;;;0.90;0.90;;;17.50;40.60;;;;;;5148441;27;45365;-64
2023/12/07 06:20:54;;;;;;;0.90;0.90;;;17.50;40.50;;;;;;5148769;27;45301;-64
2023/12/07 06:23:21;;;;;;;1.08;1.00;;;17.60;40.50;;;;;;5148745;27;45317;-65
2023/12/07 06:25:49;;;;;;;1.10;1.00;;;17.50;40.40;;;;;;5148570;27;48015;-65
2023/12/07 06:28:17;;;;;;;1.65;0.90;;;17.50;40.40;;;;;;5148809;27;46107;-65
2023/12/07 06:30:44;;;;;;;0.90;0.90;;;17.50;40.30;;;;;;5148837;27;45366;-65
2023/12/07 06:33:11;;;;;;;0.93;0.88;;;17.60;40.30;;;;;;5148929;27;45407;-65
2023/12/07 06:35:38;;;;;;;0.88;0.88;;;17.60;40.30;;;;;;5148702;27;45306;-65
2023/12/07 06:38:05;;;;;;;1.13;1.02;;;17.60;40.30;;;;;;5148280;27;45395;-65
2023/12/07 06:40:32;;;;;;;1.08;0.98;;;17.60;40.30;;;;;;5148516;27;45315;-65
2023/12/07 06:42:59;;;;;;;1.15;1.05;;;17.60;40.20;;;;;;5148583;27;45464;-65
2023/12/07 06:45:27;;;;;;;0.90;0.90;;;17.70;40.20;;;;;;5148406;27;46900;-65
2023/12/07 06:47:54;;;;;;;0.90;0.90;;;17.70;40.10;;;;;;5166793;27;45252;-65
2023/12/07 06:50:21;;;;;;;1.10;1.00;;;17.70;40.10;;;;;;5169475;27;45301;-65
2023/12/07 06:52:48;;;;;;;1.15;1.05;;;17.70;40.00;;;;;;5169546;27;45484;-65
2023/12/07 06:55:15;;;;;;;1.25;1.00;;;17.80;39.90;;;;;;5169293;27;45332;-65
2023/12/07 06:57:42;;;;;;;1.30;1.20;;;17.90;39.80;;;;;;5169049;27;45319;-64
2023/12/07 07:00:10;;;;;;;1.80;0.95;;;17.80;39.80;;;;;;5169457;27;45327;-65
2023/12/07 08:38:04;;;;;;;1.58;1.42;;;15.20;44.30;;;;;;5186442;27;45323;-65
2023/12/07 08:40:31;;;;;;;2.33;2.13;;;15.90;43.50;;;;;;5186696;27;45342;-66
2023/12/07 08:42:58;;;;;;;1.85;1.70;;;16.10;43.00;;;;;;5187153;27;45248;-65
2023/12/07 08:45:25;;;;;;;3.15;2.05;;;16.30;42.50;;;;;;5186872;27;45283;-66
2023/12/07 08:47:52;;;;;;;2.28;2.05;;;16.50;42.10;;;;;;5186398;27;46403;-66
2023/12/07 08:50:19;;;;;;;3.55;1.92;;;16.60;41.80;;;;;;5186580;27;45358;-64
2023/12/07 08:52:46;;;;;;;2.42;2.00;;;16.80;41.60;;;;;;5186786;27;45237;-65
2023/12/07 08:55:15;;;;;;;1.73;1.63;;;16.90;41.40;;;;;;5186872;27;45461;-65
2023/12/07 08:57:42;;;;;;;4.15;1.75;;;17.00;41.20;;;;;;5186293;27;46303;-65
2023/12/07 09:00:12;;;;;;;2.15;1.67;;;17.10;40.90;;;;;;5186476;27;45274;-66
2023/12/07 09:02:39;;;;;;;3.38;2.40;;;17.20;40.80;;;;;;5181533;27;45423;-64
2023/12/07 09:05:08;;;;;;;4.22;2.20;;;17.40;40.90;;;;;;5175678;27;45281;-64
2023/12/07 09:07:35;;;;;;;5.93;2.00;;;17.60;40.20;;;;;;5180834;27;47600;-64
2023/12/07 09:10:03;;;;;;;2.22;2.03;;;17.80;39.80;;;;;;5164860;27;45342;-65
2023/12/07 09:12:31;;;;;;;3.42;2.10;;;18.00;39.30;;;;;;5178624;27;45466;-66
2023/12/07 09:14:58;;;;;;;2.88;1.85;;;18.20;39.20;;;;;;5186532;27;45205;-67
2023/12/07 09:17:25;;;;;;;2.42;2.17;;;18.30;39.10;;;;;;5185564;27;46539;-65
2023/12/07 09:19:51;;;;;;;3.15;2.30;;;18.50;38.80;;;;;;5186270;27;45326;-66
2023/12/07 09:22:19;;;;;;;3.92;1.95;;;18.60;38.50;;;;;;5186308;27;45493;-65
2023/12/07 09:24:47;;;;;;;5.53;2.08;;;18.60;38.50;;;;;;5177614;27;45310;-65
2023/12/07 09:27:14;;;;;;;4.65;2.08;;;18.60;38.40;;;;;;5185553;27;47639;-69
2023/12/07 09:29:42;;;;;;;2.08;1.88;;;18.70;38.50;;;;;;5185600;27;45264;-66
2023/12/07 09:32:09;;;;;;;4.97;2.08;;;18.80;38.40;;;;;;5184067;27;45391;-64
2023/12/07 09:34:36;;;;;;;3.42;2.00;;;18.90;38.10;;;;;;5180838;27;45475;-64
2023/12/07 09:37:09;;;;;;;3.90;1.90;;;18.80;38.10;;;;;;5161369;27;47693;-64
2023/12/07 09:39:35;;;;;;;2.92;1.98;;;18.70;38.20;;;;;;5150455;27;45394;-64
2023/12/07 09:42:02;;;;;;;3.60;1.90;;;18.70;38.20;;;;;;5150694;27;45352;-64
2023/12/07 09:44:29;;;;;;;2.17;1.95;;;18.60;38.30;;;;;;5151785;27;45405;-64
2023/12/07 09:46:57;;;;;;;4.38;1.58;;;18.60;38.30;;;;;;5150278;27;46273;-64
2023/12/07 09:49:24;;;;;;;5.72;1.95;;;18.60;38.30;;;;;;5151496;27;45378;-64
2023/12/07 09:51:51;;;;;;;2.67;1.77;;;18.60;38.40;;;;;;5167701;27;45266;-64
2023/12/07 09:54:18;;;;;;;3.17;1.92;;;18.60;38.30;;;;;;5171499;27;45570;-64
2023/12/07 09:56:45;;;;;;;3.17;2.20;;;18.60;38.30;;;;;;5171018;27;46364;-63
2023/12/07 09:59:12;;;;;;;2.20;1.75;;;18.70;38.30;;;;;;5170489;27;45315;-63
2023/12/07 10:01:39;;;;;;;2.25;1.95;;;18.70;38.20;;;;;;5171505;27;45151;-68
2023/12/07 10:04:20;;;;;;;2.50;2.13;;;18.70;38.30;;;;;;5171598;27;45439;-67
2023/12/07 10:06:49;;;;;;;3.40;1.90;;;18.70;38.50;;;;;;5159556;27;45641;-68
2023/12/07 10:09:15;;;;;;;4.03;1.90;;;18.80;39.10;;;;;;5169266;27;45346;-68
2023/12/07 10:11:43;;;;;;;4.35;2.50;;;18.80;38.30;;;;;;5169885;27;45351;-69
2023/12/07 10:14:10;;;;;;;5.60;2.70;;;18.80;38.30;;;;;;5171978;27;45123;-67
2023/12/07 10:16:37;;;;;;;5.47;2.30;;;18.80;39.00;;;;;;5170883;27;45277;-67
2023/12/07 10:19:21;;;;;;;4.63;2.45;;;18.80;38.60;;;;;;5171519;27;45328;-66
2023/12/07 10:21:50;;;;;;;4.80;2.92;;;18.80;38.70;;;;;;5171069;27;45270;-66
2023/12/07 10:24:17;;;;;;;2.97;2.20;;;18.90;38.70;;;;;;5171320;27;45360;-66
2023/12/07 10:26:44;;;;;;;6.65;2.35;;;18.90;39.00;;;;;;5171118;27;46257;-67
2023/12/07 10:29:11;;;;;;;8.32;2.22;;;19.00;39.40;;;;;;5156991;27;45480;-67
2023/12/07 10:31:38;;;;;;;6.30;2.17;;;19.00;39.20;;;;;;5150198;27;45209;-67
2023/12/07 10:34:05;;;;;;;4.20;3.08;;;19.10;39.00;;;;;;5167768;27;45326;-67
2023/12/07 10:36:32;;;;;;;4.75;2.22;;;19.10;39.10;;;;;;5170729;27;46673;-66
2023/12/07 10:39:02;;;;;;;6.35;2.40;;;19.10;39.40;;;;;;5156235;27;45594;-63
2023/12/07 10:41:28;;;;;;;9.73;2.13;;;19.10;39.40;;;;;;5167933;27;45140;-66
2023/12/07 10:43:58;;;;;;;4.38;2.58;;;19.20;39.40;;;;;;5170559;27;45349;-66
2023/12/07 10:46:25;;;;;;;7.38;2.33;;;19.30;39.30;;;;;;5170501;27;45536;-67
2023/12/07 10:48:56;;;;;;;2.85;1.88;;;19.30;39.50;;;;;;5169284;27;45365;-67
2023/12/07 10:51:25;;;;;;;4.15;2.40;;;19.30;39.30;;;;;;5167558;27;45456;-67
2023/12/07 10:53:53;;;;;;;13.85;2.75;;;19.40;39.40;;;;;;5164052;27;45333;-66
2023/12/07 10:56:26;;;;;;;3.45;1.95;;;19.40;39.40;;;;;;5169135;27;45421;-69
2023/12/07 10:58:52;;;;;;;10.65;2.30;;;19.50;39.40;;;;;;5155845;27;45301;-68
2023/12/07 11:01:19;;;;;;;5.05;2.03;;;19.50;39.50;;;;;;5151060;27;45386;-66
2023/12/07 11:03:46;;;;;;;4.45;2.58;;;19.60;39.60;;;;;;5164476;27;45471;-65
2023/12/07 11:06:13;;;;;;;5.22;2.15;;;19.70;39.40;;;;;;5163354;27;46421;-68
2023/12/07 11:08:41;;;;;;;6.18;2.40;;;19.80;39.30;;;;;;5164239;27;45702;-68
2023/12/07 11:11:11;;;;;;;3.38;2.20;;;19.90;39.30;;;;;;5164169;27;45315;-68
2023/12/07 11:13:39;;;;;;;4.57;1.95;;;20.00;39.30;;;;;;5170519;27;45367;-70
2023/12/07 11:16:06;;;;;;;7.38;2.53;;;20.00;39.20;;;;;;5169316;27;46635;-69
2023/12/07 11:18:33;;;;;;;2.50;2.30;;;20.10;39.20;;;;;;5158409;27;45241;-69
2023/12/07 11:21:00;;;;;;;7.10;2.35;;;20.10;39.10;;;;;;5149294;27;45409;-65
2023/12/07 11:23:28;;;;;;;3.25;2.35;;;20.20;39.10;;;;;;5158077;27;45441;-68
2023/12/07 11:25:55;;;;;;;5.90;2.33;;;20.20;39.10;;;;;;5169910;27;46399;-70
2023/12/07 11:28:35;;;;;;;4.93;2.33;;;20.30;39.00;;;;;;5169358;27;45266;-67
2023/12/07 11:31:03;;;;;;;3.70;2.00;;;20.40;38.90;;;;;;5170009;27;45328;-68
2023/12/07 11:33:30;;;;;;;6.50;2.25;;;20.50;38.70;;;;;;5169584;27;45260;-67
2023/12/07 11:36:08;;;;;;;4.90;1.98;;;20.60;38.60;;;;;;5169401;27;46636;-67
2023/12/07 11:38:34;;;;;;;2.88;1.92;;;20.60;38.70;;;;;;5160443;27;45258;-68
2023/12/07 11:41:02;;;;;;;4.28;2.25;;;20.70;38.70;;;;;;5168508;27;45322;-69
2023/12/07 11:43:43;;;;;;;6.20;2.00;;;20.70;38.50;;;;;;5167549;27;45344;-68
2023/12/07 11:46:13;;;;;;;5.93;2.13;;;20.70;38.40;;;;;;5169583;27;45365;-66
2023/12/07 11:48:39;;;;;;;2.95;2.10;;;20.70;38.50;;;;;;5169590;27;45446;-63
2023/12/07 11:51:07;;;;;;;5.97;2.40;;;20.70;38.40;;;;;;5166918;27;45380;-66
2023/12/07 11:53:37;;;;;;;2.25;2.00;;;20.70;38.30;;;;;;5169729;27;45196;-67
2023/12/07 11:56:05;;;;;;;5.68;2.22;;;20.60;38.20;;;;;;5168992;27;46475;-65
2023/12/07 11:58:33;;;;;;;4.00;2.40;;;20.70;38.40;;;;;;5168942;27;45299;-65
2023/12/07 12:01:00;;;;;;;5.85;2.38;;;20.60;38.30;;;;;;5168654;27;45550;-65
2023/12/07 12:03:29;;;;;;;4.63;2.03;;;20.50;38.60;;;;;;5168507;27;45636;-64
2023/12/07 12:05:56;;;;;;;5.45;2.80;;;20.50;38.70;;;;;;5168549;27;45343;-66
2023/12/07 12:08:23;;;;;;;2.25;1.88;;;20.50;38.60;;;;;;5168661;27;45339;-66
2023/12/07 12:10:52;;;;;;;5.78;1.92;;;20.60;38.50;;;;;;5169087;27;45230;-67
2023/12/07 12:13:19;;;;;;;5.78;1.85;;;20.70;38.30;;;;;;5169624;27;45390;-67
2023/12/07 12:15:46;;;;;;;3.63;1.90;;;20.80;38.20;;;;;;5168840;27;45395;-65
2023/12/07 12:18:13;;;;;;;2.75;2.00;;;20.80;38.20;;;;;;5168592;27;45347;-66
2023/12/07 12:20:43;;;;;;;3.20;1.83;;;20.90;38.80;;;;;;5169018;27;45498;-65
2023/12/07 12:23:10;;;;;;;2.85;1.83;;;20.80;38.20;;;;;;5168757;27;45423;-65
2023/12/07 12:25:40;;;;;;;5.03;2.17;;;20.70;38.30;;;;;;5168776;27;46422;-64
2023/12/07 12:28:06;;;;;;;5.90;2.42;;;20.60;38.40;;;;;;5168544;27;45333;-65
2023/12/07 12:30:33;;;;;;;3.35;2.17;;;20.50;38.60;;;;;;5169017;27;45451;-65
2023/12/07 12:33:01;;;;;;;4.22;1.67;;;20.40;38.60;;;;;;5168863;27;45258;-64
2023/12/07 12:35:28;;;;;;;3.33;1.85;;;20.40;38.70;;;;;;5168865;27;46371;-65
2023/12/07 12:37:56;;;;;;;3.53;2.08;;;20.30;38.80;;;;;;5168229;27;45201;-66
2023/12/07 12:40:23;;;;;;;3.60;2.17;;;20.30;39.50;;;;;;5169062;27;45326;-66
2023/12/07 12:42:51;;;;;;;3.33;1.70;;;20.30;38.90;;;;;;5166246;27;45312;-66
2023/12/07 12:45:18;;;;;;;3.08;1.70;;;20.30;39.00;;;;;;5168439;27;46641;-66
2023/12/07 12:47:45;;;;;;;2.10;1.90;;;20.30;39.10;;;;;;5168668;27;45278;-65
2023/12/07 12:50:12;;;;;;;2.45;1.90;;;20.30;39.10;;;;;;5168402;27;45376;-64
2023/12/07 12:52:40;;;;;;;2.78;1.60;;;20.30;39.10;;;;;;5168629;27;45467;-64
2023/12/07 12:55:11;;;;;;;2.00;1.90;;;20.30;39.10;;;;;;5167911;27;45301;-65
2023/12/07 12:57:38;;;;;;;3.50;1.60;;;20.30;39.10;;;;;;5167964;27;45380;-65
2023/12/07 13:00:07;;;;;;;5.68;1.80;;;20.30;39.10;;;;;;5168388;27;45329;-64
2023/12/07 13:02:33;;;;;;;4.15;2.22;;;20.30;39.70;;;;;;5168527;27;45246;-64
2023/12/07 13:05:00;;;;;;;2.42;1.90;;;20.30;39.10;;;;;;5167989;27;46719;-65
2023/12/07 13:07:27;;;;;;;2.72;2.05;;;20.30;39.10;;;;;;5167650;27;45364;-64
2023/12/07 13:09:54;;;;;;;2.55;2.20;;;20.30;39.00;;;;;;5168008;27;45434;-63
2023/12/07 13:12:23;;;;;;;5.70;2.50;;;20.30;39.00;;;;;;5168410;27;45340;-63
2023/12/07 13:14:50;;;;;;;3.13;2.40;;;20.30;39.00;;;;;;5171622;27;47280;-64
2023/12/07 13:17:17;;;;;;;2.72;2.53;;;20.30;38.80;;;;;;5162181;27;45298;-63
2023/12/07 13:19:44;;;;;;;4.05;2.38;;;20.30;39.40;;;;;;5151177;27;45287;-64
2023/12/07 13:22:11;;;;;;;6.15;2.92;;;20.30;39.00;;;;;;5150691;27;45299;-64
2023/12/07 13:24:38;;;;;;;3.47;2.85;;;20.30;38.90;;;;;;5150508;27;45370;-65
2023/12/07 13:27:05;;;;;;;5.35;3.05;;;20.40;39.00;;;;;;5150417;27;45308;-65
2023/12/07 13:29:34;;;;;;;5.85;2.92;;;20.40;39.10;;;;;;5150261;27;45415;-65
2023/12/07 13:32:01;;;;;;;5.95;2.75;;;20.40;38.60;;;;;;5153900;27;45428;-64
2023/12/07 13:34:28;;;;;;;4.63;2.90;;;20.40;38.70;;;;;;5159566;27;45473;-64
2023/12/07 13:36:54;;;;;;;7.72;3.17;;;20.40;38.80;;;;;;5158659;27;45210;-65
2023/12/07 13:39:21;;;;;;;3.97;2.33;;;20.40;38.80;;;;;;5171124;27;45361;-64
2023/12/07 13:41:49;;;;;;;3.72;2.88;;;20.40;38.70;;;;;;5164185;27;45422;-66
2023/12/07 13:44:18;;;;;;;4.03;2.65;;;20.40;38.80;;;;;;5158959;27;45368;-65
2023/12/07 13:46:46;;;;;;;3.65;2.75;;;20.40;38.70;;;;;;5158099;27;45465;-64
2023/12/07 13:49:14;;;;;;;7.13;3.10;;;20.40;38.70;;;;;;5158060;27;45518;-64
2023/12/07 13:51:41;;;;;;;7.60;2.88;;;20.40;38.50;;;;;;5158839;27;45436;-64
2023/12/07 13:54:08;;;;;;;5.28;2.85;;;20.40;38.40;;;;;;5157680;27;45733;-64
2023/12/07 13:56:35;;;;;;;4.82;2.88;;;20.40;38.60;;;;;;5155288;27;45505;-64
2023/12/07 13:59:02;;;;;;;3.30;2.50;;;20.40;38.60;;;;;;5159033;27;45447;-65
2023/12/07 14:01:31;;;;;;;3.95;2.72;;;20.40;38.70;;;;;;5155248;27;45478;-64
2023/12/07 14:04:01;;;;;;;4.68;2.50;;;20.40;38.70;;;;;;5157959;27;46272;-64
2023/12/07 14:06:28;;;;;;;3.53;2.75;;;20.40;38.70;;;;;;5160845;27;45492;-66
2023/12/07 14:08:55;;;;;;;3.88;2.35;;;20.40;38.70;;;;;;5158979;27;45551;-65
2023/12/07 14:11:22;;;;;;;8.32;2.80;;;20.40;38.70;;;;;;5160834;27;45484;-65
2023/12/07 14:13:53;;;;;;;5.50;2.67;;;20.40;38.60;;;;;;5148989;27;45807;-65
2023/12/07 14:16:20;;;;;;;4.70;3.78;;;20.40;38.60;;;;;;5160478;27;45331;-64
2023/12/07 14:18:47;;;;;;;5.85;3.60;;;20.40;38.40;;;;;;5163774;27;45479;-64
2023/12/07 14:21:19;;;;;;;8.32;3.70;;;20.30;38.40;;;;;;5162455;27;45420;-63